Time;durP1;ratioP1;P1;durP2;ratioP2;P2;SDS_P1;SDS_P2;PMS_P1;PMS_P2;Temp;Humidity;BMP_temperature;BMP_pressure;BME280_temperature;BME280_humidity;BME280_pressure;Samples;Min_cycle;Max_cycle;Signal;HPM_P1;HPM_P2
2022/06/29 00:02:57;;;;;;;12.50;7.70;;;;;;;23.23;59.31;99278.04;233619;1217;139223;-58
2022/06/29 00:08:00;;;;;;;9.60;6.90;;;;;;;23.21;59.27;99272.77;233740;1216;141099;-58
2022/06/29 00:13:10;;;;;;;8.30;6.40;;;;;;;23.18;59.39;99275.26;233645;1216;139816;-58
2022/06/29 00:18:13;;;;;;;7.50;6.10;;;;;;;23.20;59.54;99274.95;233608;1217;139615;-58
2022/06/29 00:23:16;;;;;;;11.10;6.70;;;;;;;23.27;59.57;99272.64;233690;1217;138804;-59
2022/06/29 00:28:19;;;;;;;11.60;6.80;;;;;;;23.28;59.51;99261.95;233665;1217;138605;-59
2022/06/29 00:33:22;;;;;;;10.30;7.20;;;;;;;23.25;59.50;99260.49;233578;1217;139401;-59
2022/06/29 00:38:25;;;;;;;8.10;7.30;;;;;;;23.20;59.44;99263.38;233648;1217;139437;-60
2022/06/29 00:43:28;;;;;;;9.70;7.20;;;;;;;23.16;59.50;99255.52;233591;1217;138508;-58
2022/06/29 00:48:31;;;;;;;9.90;7.40;;;;;;;23.12;59.42;99262.85;233636;1217;139222;-61
2022/06/29 00:53:39;;;;;;;8.60;7.80;;;;;;;23.04;59.28;99255.95;233785;1217;138620;-56
2022/06/29 00:58:45;;;;;;;8.70;7.40;;;;;;;23.01;59.53;99245.65;233873;1217;138741;-61
2022/06/29 01:03:48;;;;;;;8.70;7.80;;;;;;;22.96;59.55;99239.31;233597;1217;139254;-60
2022/06/29 01:08:51;;;;;;;9.40;7.90;;;;;;;22.90;59.61;99239.23;233567;1217;138715;-60
2022/06/29 01:13:54;;;;;;;10.30;7.60;;;;;;;22.85;59.62;99241.14;233541;1217;138908;-59
2022/06/29 01:18:57;;;;;;;10.30;7.60;;;;;;;22.82;59.63;99229.71;233449;1217;139798;-57
2022/06/29 01:24:00;;;;;;;10.00;7.70;;;;;;;22.79;59.77;99221.61;233622;1217;139472;-58
2022/06/29 01:29:03;;;;;;;12.20;8.00;;;;;;;22.78;59.91;99221.71;233681;1217;138764;-58
2022/06/29 01:34:06;;;;;;;10.50;7.80;;;;;;;22.81;60.00;99211.74;233422;1217;139938;-58
2022/06/29 01:39:09;;;;;;;13.90;7.60;;;;;;;22.79;59.89;99200.20;233711;1217;140006;-58
2022/06/29 01:44:16;;;;;;;12.60;8.30;;;;;;;22.74;59.95;99191.90;233689;1217;138923;-57
2022/06/29 01:49:19;;;;;;;10.90;8.00;;;;;;;22.67;59.86;99187.92;233733;1217;139198;-59
2022/06/29 01:54:22;;;;;;;8.70;7.00;;;;;;;22.58;59.93;99181.91;233619;1217;138982;-58
2022/06/29 01:59:25;;;;;;;9.00;7.40;;;;;;;22.60;60.02;99183.46;233753;1216;139522;-59
2022/06/29 02:04:28;;;;;;;12.80;7.60;;;;;;;22.62;60.22;99189.38;233572;1217;139274;-62
2022/06/29 02:09:31;;;;;;;10.10;7.40;;;;;;;22.63;60.07;99197.52;233568;1216;139267;-58
2022/06/29 02:14:34;;;;;;;15.90;7.30;;;;;;;22.55;59.96;99202.50;233560;1217;139463;-57
2022/06/29 02:19:37;;;;;;;9.50;7.30;;;;;;;22.45;60.08;99202.11;233600;1217;139218;-59
2022/06/29 02:24:40;;;;;;;10.70;7.50;;;;;;;22.37;60.18;99196.91;233556;1217;139012;-60
2022/06/29 02:29:43;;;;;;;8.50;6.90;;;;;;;22.37;60.60;99169.39;233679;1217;138805;-60
2022/06/29 02:34:46;;;;;;;9.50;6.80;;;;;;;22.43;60.60;99174.85;233764;1217;139171;-59
2022/06/29 02:39:49;;;;;;;12.90;7.30;;;;;;;22.46;60.45;99185.27;233638;1217;139382;-58
2022/06/29 02:44:52;;;;;;;14.50;7.50;;;;;;;22.42;60.41;99174.11;233629;1217;139106;-59
2022/06/29 02:49:55;;;;;;;10.70;7.90;;;;;;;22.41;60.35;99177.77;233291;1217;138791;-58
2022/06/29 02:54:58;;;;;;;11.30;7.40;;;;;;;22.41;60.68;99174.91;233758;1217;140232;-62
2022/06/29 03:00:01;;;;;;;13.70;8.10;;;;;;;22.38;60.54;99174.26;233748;1217;141301;-60
2022/06/29 03:05:05;;;;;;;11.50;6.80;;;;;;;22.31;60.33;99175.13;233724;1217;138943;-58
2022/06/29 03:10:08;;;;;;;13.70;8.10;;;;;;;22.23;60.37;99177.94;233570;1216;140213;-59
2022/06/29 03:15:11;;;;;;;11.70;7.40;;;;;;;22.20;60.75;99165.36;233733;1216;139264;-57
2022/06/29 03:20:14;;;;;;;13.90;8.10;;;;;;;22.19;60.77;99170.41;233632;1217;139124;-58
2022/06/29 03:25:17;;;;;;;9.20;7.70;;;;;;;22.15;60.93;99163.64;233615;1217;139418;-61
2022/06/29 03:30:20;;;;;;;11.70;8.40;;;;;;;22.17;61.19;99176.02;233526;1217;138911;-59
2022/06/29 03:35:23;;;;;;;14.40;8.30;;;;;;;22.28;61.38;99179.30;233718;1217;139599;-58
2022/06/29 03:40:26;;;;;;;10.70;8.80;;;;;;;22.37;61.46;99169.58;233602;1215;139468;-58
2022/06/29 03:45:29;;;;;;;15.50;10.60;;;;;;;22.46;61.41;99163.02;233684;1217;139006;-59
2022/06/29 03:50:32;;;;;;;14.80;10.00;;;;;;;22.54;61.44;99157.42;233577;1217;139315;-59
2022/06/29 03:55:35;;;;;;;15.10;10.80;;;;;;;22.56;61.40;99158.23;233627;1217;138781;-57
2022/06/29 04:00:38;;;;;;;17.20;11.40;;;;;;;22.58;61.43;99145.73;233764;1217;140393;-59
2022/06/29 04:05:41;;;;;;;18.40;9.80;;;;;;;22.66;61.50;99149.40;233640;1215;138866;-63
2022/06/29 04:10:50;;;;;;;14.90;10.80;;;;;;;22.72;61.30;99147.84;233707;1216;139526;-59
2022/06/29 04:15:53;;;;;;;16.90;12.10;;;;;;;22.77;61.18;99136.09;233583;1217;138996;-58
2022/06/29 04:21:08;;;;;;;15.80;12.00;;;;;;;22.86;61.33;99138.29;233654;1216;139294;-58
2022/06/29 04:26:11;;;;;;;51.40;35.70;;;;;;;22.90;61.34;99141.08;233714;1215;139112;-60
2022/06/29 04:31:14;;;;;;;122.30;102.20;;;;;;;23.01;61.65;99141.50;233615;1217;139900;-60
2022/06/29 04:36:17;;;;;;;22.50;18.20;;;;;;;23.12;61.53;99143.65;233540;1217;139448;-58
2022/06/29 04:41:20;;;;;;;20.30;12.70;;;;;;;23.21;61.55;99141.42;233643;1215;139200;-57
2022/06/29 04:46:23;;;;;;;68.30;59.80;;;;;;;23.31;61.52;99134.70;233643;1217;139992;-59
2022/06/29 04:51:29;;;;;;;31.00;27.70;;;;;;;23.54;61.37;99131.41;233079;1217;140071;-59
2022/06/29 04:56:34;;;;;;;15.50;13.40;;;;;;;23.66;61.39;99130.11;233530;1217;139298;-60
2022/06/29 05:01:37;;;;;;;16.10;14.20;;;;;;;23.88;61.57;99137.48;233647;1217;139119;-61
2022/06/29 05:06:40;;;;;;;40.10;32.10;;;;;;;24.04;61.09;99145.72;233557;1217;139151;-58
2022/06/29 05:11:43;;;;;;;18.00;14.90;;;;;;;24.02;60.68;99147.88;233472;1217;139367;-59
2022/06/29 05:16:47;;;;;;;13.40;12.00;;;;;;;24.01;60.83;99142.64;233781;1217;138866;-60
2022/06/29 05:21:50;;;;;;;15.90;13.70;;;;;;;24.22;60.86;99137.94;233608;1216;139368;-60
2022/06/29 05:26:52;;;;;;;30.20;27.00;;;;;;;24.31;60.49;99133.43;233425;1217;138814;-58
2022/06/29 05:31:56;;;;;;;19.20;15.60;;;;;;;24.41;60.09;99135.92;233658;1217;139801;-59
2022/06/29 05:36:59;;;;;;;18.70;15.50;;;;;;;24.38;59.71;99138.44;233571;1217;139338;-62
2022/06/29 05:42:03;;;;;;;14.40;12.80;;;;;;;24.40;59.82;99147.14;233305;1216;139968;-56
2022/06/29 05:47:07;;;;;;;21.50;14.90;;;;;;;24.48;59.93;99140.02;233641;1216;139332;-57
2022/06/29 05:52:10;;;;;;;20.40;15.40;;;;;;;24.59;59.51;99148.91;233650;1217;140406;-58
2022/06/29 05:57:13;;;;;;;26.70;18.10;;;;;;;24.61;59.51;99146.64;233691;1217;140289;-59
2022/06/29 06:02:16;;;;;;;21.30;16.50;;;;;;;24.71;59.40;99145.39;233708;1216;139123;-59
2022/06/29 06:07:19;;;;;;;22.60;17.10;;;;;;;24.82;59.44;99138.13;233631;1217;139097;-60
2022/06/29 06:12:22;;;;;;;21.70;15.70;;;;;;;24.83;59.05;99143.91;233451;1216;139537;-59
2022/06/29 06:17:28;;;;;;;17.80;14.60;;;;;;;24.78;59.04;99146.64;233754;1216;138791;-59
2022/06/29 06:22:36;;;;;;;20.00;15.90;;;;;;;24.82;58.89;99154.70;233524;1217;139472;-60
2022/06/29 06:27:39;;;;;;;35.50;16.60;;;;;;;24.71;58.45;99161.39;233660;1216;139539;-59
2022/06/29 06:32:42;;;;;;;21.50;14.00;;;;;;;24.64;58.69;99157.69;233633;1215;139630;-61
2022/06/29 06:37:46;;;;;;;21.50;15.40;;;;;;;24.73;58.94;99157.12;233618;1217;140653;-60
2022/06/29 06:42:49;;;;;;;21.00;15.20;;;;;;;24.89;59.22;99148.63;233533;1217;140296;-60
2022/06/29 06:47:52;;;;;;;23.90;15.10;;;;;;;25.01;59.19;99138.59;233598;1217;139056;-59
2022/06/29 06:52:55;;;;;;;23.40;14.70;;;;;;;25.11;59.18;99135.59;233569;1217;139117;-60
2022/06/29 06:57:58;;;;;;;79.70;68.10;;;;;;;25.12;59.09;99135.23;233580;1217;138815;-62
2022/06/29 07:03:01;;;;;;;39.00;30.90;;;;;;;25.19;58.95;99132.17;233723;1216;139173;-60
2022/06/29 07:08:04;;;;;;;31.00;24.70;;;;;;;25.24;58.99;99132.77;233635;1215;139303;-57
2022/06/29 07:13:07;;;;;;;30.50;22.30;;;;;;;25.36;59.08;99126.19;233593;1216;139633;-57
2022/06/29 07:18:10;;;;;;;31.20;18.80;;;;;;;25.42;59.05;99108.88;233617;1215;139570;-57
2022/06/29 07:23:13;;;;;;;26.50;16.80;;;;;;;25.58;58.97;99109.98;233608;1217;140124;-61
2022/06/29 07:28:16;;;;;;;20.80;14.90;;;;;;;25.61;58.42;99105.63;233601;1217;140043;-58
2022/06/29 07:33:19;;;;;;;22.50;18.10;;;;;;;25.65;58.11;99100.94;233502;1217;139395;-59
2022/06/29 07:38:22;;;;;;;19.20;14.40;;;;;;;25.70;58.15;99096.67;233554;1216;140068;-58
2022/06/29 07:43:26;;;;;;;17.50;15.60;;;;;;;25.75;57.99;99094.42;233598;1216;139033;-58
2022/06/29 07:48:30;;;;;;;26.10;21.60;;;;;;;25.74;57.71;99088.95;233588;1215;139021;-58
2022/06/29 07:53:33;;;;;;;24.40;16.70;;;;;;;25.80;57.69;99090.06;233598;1217;138719;-59
2022/06/29 07:58:35;;;;;;;17.80;15.70;;;;;;;25.78;57.56;99084.80;233489;1217;138469;-59
2022/06/29 08:03:38;;;;;;;24.00;15.20;;;;;;;25.82;57.47;99080.49;233647;1217;139716;-57
2022/06/29 08:08:42;;;;;;;15.90;13.10;;;;;;;25.86;57.63;99078.55;233675;1216;139705;-57
2022/06/29 08:13:45;;;;;;;16.40;12.40;;;;;;;25.90;57.48;99075.84;233620;1217;139313;-60
2022/06/29 08:18:48;;;;;;;39.20;34.30;;;;;;;25.94;57.41;99077.14;233673;1217;139078;-60
2022/06/29 08:23:51;;;;;;;22.90;17.20;;;;;;;26.02;57.15;99072.36;233553;1216;138963;-60
2022/06/29 08:28:54;;;;;;;21.50;16.30;;;;;;;26.05;57.18;99065.59;233647;1216;141523;-61
2022/06/29 08:33:57;;;;;;;19.60;14.90;;;;;;;26.10;57.19;99058.39;233525;1217;139071;-61
2022/06/29 08:39:01;;;;;;;21.90;15.00;;;;;;;26.14;56.88;99051.75;233615;1217;244112;-58
2022/06/29 08:44:05;;;;;;;24.80;14.80;;;;;;;26.20;56.93;99046.27;233563;1217;139698;-60
2022/06/29 08:49:08;;;;;;;22.80;14.20;;;;;;;26.28;56.88;99043.61;233418;1216;141010;-61
2022/06/29 08:54:17;;;;;;;17.60;12.80;;;;;;;26.34;56.88;99042.20;233525;1215;138815;-61
2022/06/29 08:59:22;;;;;;;21.10;13.40;;;;;;;26.38;56.78;99035.44;233815;1217;138785;-60
2022/06/29 09:04:45;;;;;;;48.20;31.00;;;;;;;26.50;56.89;99032.31;233735;1217;139421;-61
2022/06/29 09:10:08;;;;;;;30.80;19.90;;;;;;;26.58;56.74;99030.33;233666;1217;139120;-61
2022/06/29 09:15:12;;;;;;;22.50;16.00;;;;;;;26.56;56.41;99027.60;233569;1216;139892;-57
2022/06/29 09:20:15;;;;;;;20.60;14.10;;;;;;;26.54;56.59;99024.08;233546;1217;139606;-58
2022/06/29 09:25:41;;;;;;;22.40;13.30;;;;;;;26.61;56.74;99026.40;233502;1217;139126;-56
2022/06/29 09:30:44;;;;;;;18.90;12.90;;;;;;;26.67;56.53;99019.17;233480;1217;139362;-57
2022/06/29 09:36:03;;;;;;;21.40;12.30;;;;;;;26.82;56.40;99018.09;233501;1216;138741;-57
2022/06/29 09:41:14;;;;;;;16.10;13.00;;;;;;;27.02;56.35;99014.60;233725;1217;139990;-57
2022/06/29 09:46:17;;;;;;;18.50;11.60;;;;;;;27.23;56.19;99013.48;233572;1217;139564;-58
2022/06/29 09:51:30;;;;;;;15.60;12.20;;;;;;;27.32;55.71;99007.10;233671;1217;138953;-59
2022/06/29 09:56:41;;;;;;;13.60;12.00;;;;;;;27.48;55.76;99014.71;233528;1216;139374;-57
2022/06/29 10:07:06;;;;;;;46.70;36.50;;;;;;;27.90;55.45;99003.39;233423;1217;140783;-58
2022/06/29 10:18:05;;;;;;;15.90;10.80;;;;;;;28.38;54.85;98993.27;233429;1217;139184;-56
2022/06/29 10:23:08;;;;;;;11.80;10.50;;;;;;;28.51;54.60;98991.40;233618;1216;139126;-56
2022/06/29 10:28:16;;;;;;;12.30;10.50;;;;;;;28.72;54.09;98992.35;233530;1217;140232;-57
2022/06/29 10:33:37;;;;;;;14.80;10.00;;;;;;;28.90;53.79;98989.81;233554;1217;139193;-56
2022/06/29 10:38:55;;;;;;;17.30;10.50;;;;;;;29.02;53.57;98990.05;233470;1216;138906;-55
2022/06/29 10:43:58;;;;;;;13.20;10.30;;;;;;;29.18;53.44;98994.34;233456;1217;209962;-57
2022/06/29 10:49:30;;;;;;;11.80;10.30;;;;;;;29.30;53.00;98981.90;233649;1216;139568;-58
2022/06/29 10:54:34;;;;;;;12.50;9.50;;;;;;;29.43;52.85;98978.56;233559;1217;138779;-55
2022/06/29 10:59:38;;;;;;;12.70;10.00;;;;;;;29.59;52.44;98976.95;233662;1215;139388;-56
2022/06/29 11:04:43;;;;;;;11.20;9.50;;;;;;;29.69;52.42;98979.48;233518;1217;139100;-55
2022/06/29 11:20:32;;;;;;;15.40;9.10;;;;;;;30.19;51.50;98957.79;233601;1217;139063;-58
2022/06/29 11:25:35;;;;;;;53.90;48.40;;;;;;;30.28;50.92;98944.15;233612;1217;139150;-55
2022/06/29 11:30:39;;;;;;;10.80;8.80;;;;;;;30.58;51.12;98938.73;233399;1217;139336;-54
2022/06/29 11:35:42;;;;;;;21.90;19.20;;;;;;;30.71;50.67;98921.17;233495;1217;139088;-56
2022/06/29 11:40:49;;;;;;;11.80;9.80;;;;;;;30.95;50.51;98921.35;233626;1217;138846;-56
2022/06/29 11:46:20;;;;;;;11.90;8.70;;;;;;;31.07;49.97;98919.80;233476;1217;138876;-56
2022/06/29 11:51:23;;;;;;;15.80;8.60;;;;;;;31.21;49.70;98916.90;233439;1217;138882;-56
2022/06/29 11:56:27;;;;;;;12.90;8.50;;;;;;;31.33;49.26;98903.05;233468;1217;138836;-56
2022/06/29 12:01:30;;;;;;;13.70;8.40;;;;;;;31.44;48.85;98898.96;233647;1217;139038;-58
2022/06/29 12:06:37;;;;;;;11.60;7.10;;;;;;;31.59;48.66;98896.00;233562;1217;139099;-60
2022/06/29 12:11:40;;;;;;;9.80;7.20;;;;;;;31.74;48.14;98887.55;233744;1217;140726;-59
2022/06/29 12:16:43;;;;;;;11.20;7.90;;;;;;;31.97;47.95;98887.29;233662;1216;139111;-57
2022/06/29 12:21:46;;;;;;;11.10;7.20;;;;;;;32.19;47.67;98885.20;233428;1217;139693;-58
2022/06/29 12:26:49;;;;;;;11.20;6.90;;;;;;;32.40;47.33;98881.80;233464;1217;140515;-58
2022/06/29 12:31:52;;;;;;;51.10;42.60;;;;;;;32.66;46.95;98874.55;233559;1217;139014;-58
2022/06/29 12:36:56;;;;;;;14.50;10.70;;;;;;;32.85;46.40;98870.70;233546;1217;139437;-59
2022/06/29 12:42:01;;;;;;;15.10;7.30;;;;;;;33.06;45.67;98867.02;233501;1217;140015;-60
2022/06/29 12:47:04;;;;;;;17.00;6.90;;;;;;;33.25;45.66;98866.52;233580;1216;138802;-58
2022/06/29 12:52:07;;;;;;;13.40;6.30;;;;;;;33.38;45.19;98858.48;233589;1217;139247;-58
2022/06/29 12:57:10;;;;;;;12.10;6.80;;;;;;;33.45;44.90;98851.38;233853;1216;140084;-58
2022/06/29 13:02:13;;;;;;;10.50;6.80;;;;;;;33.61;44.54;98857.39;233810;1216;138405;-58
2022/06/29 13:07:16;;;;;;;12.30;6.10;;;;;;;33.67;43.97;98846.61;234139;1216;139417;-57
2022/06/29 13:12:19;;;;;;;11.80;6.40;;;;;;;33.80;43.33;98840.63;234058;1216;139395;-58
2022/06/29 13:17:22;;;;;;;11.30;6.00;;;;;;;33.95;42.86;98847.02;234038;1216;139057;-56
2022/06/29 13:22:25;;;;;;;172.50;153.70;;;;;;;34.09;42.54;98843.16;234079;1216;139133;-56
2022/06/29 13:27:28;;;;;;;22.70;19.80;;;;;;;34.08;42.16;98837.75;234180;1216;139532;-57
2022/06/29 13:32:31;;;;;;;13.90;10.30;;;;;;;34.08;42.38;98838.64;233956;1217;138885;-57
2022/06/29 13:37:35;;;;;;;13.10;7.10;;;;;;;34.04;41.95;98833.60;233950;1217;140444;-56
2022/06/29 13:42:38;;;;;;;8.80;6.30;;;;;;;33.91;41.85;98821.42;234198;1216;138693;-56
2022/06/29 13:48:01;;;;;;;14.20;6.90;;;;;;;33.90;42.14;98820.38;234039;1216;139870;-57
2022/06/29 13:53:04;;;;;;;11.40;6.30;;;;;;;33.84;42.08;98811.70;234222;1216;139463;-56
2022/06/29 13:58:07;;;;;;;21.70;18.60;;;;;;;33.73;41.45;98809.60;233700;1216;139155;-56
2022/06/29 14:03:10;;;;;;;57.90;48.40;;;;;;;33.65;42.20;98804.35;234045;1216;139256;-57
2022/06/29 14:08:14;;;;;;;13.40;7.70;;;;;;;33.72;42.17;98802.67;234007;1217;140187;-56
2022/06/29 14:13:37;;;;;;;12.10;6.60;;;;;;;33.71;41.62;98807.63;233927;1217;138840;-56
2022/06/29 14:18:40;;;;;;;10.60;6.30;;;;;;;33.62;41.49;98800.92;234167;1217;140088;-57
2022/06/29 14:23:43;;;;;;;33.10;25.30;;;;;;;33.51;41.62;98800.61;233934;1217;138812;-56
2022/06/29 14:28:46;;;;;;;16.50;7.70;;;;;;;33.40;41.51;98797.48;234043;1217;139234;-56
2022/06/29 14:33:49;;;;;;;11.00;6.10;;;;;;;33.32;41.71;98793.09;234140;1217;138552;-57
2022/06/29 14:38:58;;;;;;;10.00;5.90;;;;;;;33.25;41.68;98791.31;234125;1217;139239;-56
2022/06/29 14:44:21;;;;;;;23.20;17.90;;;;;;;33.20;41.79;98789.89;233915;1217;138792;-57
2022/06/29 14:49:25;;;;;;;12.30;8.60;;;;;;;33.07;41.71;98782.94;233971;1217;140104;-57
2022/06/29 14:54:28;;;;;;;9.10;6.40;;;;;;;32.93;41.73;98771.42;234085;1216;139521;-55
2022/06/29 14:59:31;;;;;;;8.30;6.30;;;;;;;32.75;41.81;98758.74;234266;1216;138932;-57
2022/06/29 15:04:34;;;;;;;10.00;6.10;;;;;;;32.66;41.75;98760.02;234100;1216;139021;-57
2022/06/29 15:09:37;;;;;;;7.80;6.00;;;;;;;32.53;41.76;98760.40;234085;1217;138812;-56
2022/06/29 15:14:40;;;;;;;8.40;6.10;;;;;;;32.48;41.74;98767.41;234061;1215;138416;-57
2022/06/29 15:19:43;;;;;;;12.00;6.40;;;;;;;32.39;42.31;98765.59;234093;1216;138836;-56
2022/06/29 15:24:46;;;;;;;17.40;6.40;;;;;;;32.28;42.34;98744.11;233894;1217;139127;-58
2022/06/29 15:29:49;;;;;;;11.80;6.50;;;;;;;32.14;42.31;98731.86;233719;1217;139103;-58
2022/06/29 15:40:14;;;;;;;11.20;7.00;;;;;;;31.95;42.39;98739.27;233542;1215;139321;-57
2022/06/29 15:45:17;;;;;;;18.90;15.90;;;;;;;31.86;42.34;98767.86;233578;1217;138556;-57
2022/06/29 15:50:20;;;;;;;11.80;7.90;;;;;;;31.78;42.53;98777.69;233531;1217;139185;-57
2022/06/29 15:55:35;;;;;;;15.70;7.70;;;;;;;31.67;42.82;98771.23;233511;1217;138586;-58
2022/06/29 16:00:38;;;;;;;12.70;8.00;;;;;;;31.65;42.96;98782.19;233463;1217;139515;-58
2022/06/29 16:05:41;;;;;;;13.90;8.70;;;;;;;31.59;42.82;98793.16;233646;1216;139060;-57
2022/06/29 16:10:44;;;;;;;12.50;8.50;;;;;;;31.51;43.02;98778.27;233455;1217;138698;-56
2022/06/29 16:15:47;;;;;;;14.40;8.80;;;;;;;31.42;43.17;98763.02;233411;1217;139481;-55
2022/06/29 16:20:52;;;;;;;123.00;99.20;;;;;;;31.35;43.05;98765.60;233522;1216;140314;-56
2022/06/29 16:25:55;;;;;;;30.20;24.70;;;;;;;31.26;43.20;98755.00;233412;1217;139891;-56
2022/06/29 16:30:58;;;;;;;15.40;9.40;;;;;;;31.18;43.37;98741.44;233445;1217;139324;-58
2022/06/29 16:36:01;;;;;;;12.30;9.50;;;;;;;31.12;43.43;98744.90;233509;1217;139590;-56
2022/06/29 16:41:04;;;;;;;15.00;9.00;;;;;;;30.98;43.67;98741.63;233653;1216;139687;-55
2022/06/29 16:46:07;;;;;;;20.80;8.90;;;;;;;30.89;43.70;98749.14;233466;1217;139994;-55
2022/06/29 16:51:10;;;;;;;13.20;8.50;;;;;;;30.81;43.74;98746.23;233517;1216;140170;-56
2022/06/29 16:56:13;;;;;;;15.10;9.10;;;;;;;30.72;43.69;98745.31;233561;1217;139919;-58
2022/06/29 17:01:16;;;;;;;133.00;118.90;;;;;;;30.65;44.17;98748.61;233599;1217;139629;-56
2022/06/29 17:06:20;;;;;;;19.00;13.20;;;;;;;30.60;44.39;98748.20;233421;1217;141942;-57
2022/06/29 17:11:23;;;;;;;47.10;42.00;;;;;;;30.52;44.38;98737.88;233762;1216;138886;-57
2022/06/29 17:16:26;;;;;;;27.10;19.30;;;;;;;30.48;44.52;98739.08;233523;1217;139051;-57
2022/06/29 17:21:29;;;;;;;21.30;14.90;;;;;;;30.45;44.57;98740.36;233463;1217;139530;-56
2022/06/29 17:26:32;;;;;;;18.20;14.20;;;;;;;30.39;44.79;98750.77;233513;1215;139498;-56
2022/06/29 17:31:35;;;;;;;17.40;11.90;;;;;;;30.32;44.72;98745.53;233532;1217;139270;-57
2022/06/29 17:36:38;;;;;;;17.10;12.30;;;;;;;30.29;45.16;98750.72;233469;1217;139453;-57
2022/06/29 17:41:41;;;;;;;16.20;11.30;;;;;;;30.20;45.38;98740.80;233706;1217;140433;-57
2022/06/29 17:46:47;;;;;;;17.80;11.00;;;;;;;30.16;45.78;98745.90;233595;1217;139221;-58
2022/06/29 17:51:50;;;;;;;14.20;10.70;;;;;;;30.12;45.85;98742.38;233547;1217;139976;-58
2022/06/29 17:56:53;;;;;;;15.10;9.60;;;;;;;30.06;46.24;98739.25;233534;1217;139450;-58
2022/06/29 18:01:57;;;;;;;45.00;19.30;;;;;;;30.00;46.30;98738.56;233601;1217;139199;-57
2022/06/29 18:07:00;;;;;;;43.30;19.40;;;;;;;29.94;46.61;98743.65;233568;1215;139195;-58
2022/06/29 18:12:03;;;;;;;28.40;21.00;;;;;;;29.85;47.06;98736.20;233572;1216;139318;-58
2022/06/29 18:17:07;;;;;;;31.80;21.50;;;;;;;29.77;47.20;98726.35;233675;1217;139634;-58
2022/06/29 18:22:10;;;;;;;19.10;11.90;;;;;;;29.77;47.72;98721.29;233531;1217;139423;-57
2022/06/29 18:27:13;;;;;;;16.60;10.00;;;;;;;29.69;47.67;98705.73;233541;1217;138820;-58
2022/06/29 18:32:18;;;;;;;15.60;10.60;;;;;;;29.52;48.14;98694.16;233528;1217;143008;-58
2022/06/29 18:37:21;;;;;;;15.00;10.20;;;;;;;29.41;48.65;98710.23;233538;1215;139031;-57
2022/06/29 18:42:24;;;;;;;16.40;10.90;;;;;;;29.34;48.70;98714.46;233635;1217;139311;-58
2022/06/29 18:47:27;;;;;;;17.30;10.00;;;;;;;29.27;49.09;98706.34;233193;1217;139127;-57
2022/06/29 18:52:31;;;;;;;77.10;62.30;;;;;;;29.19;49.23;98704.45;233386;1217;139417;-57
2022/06/29 18:57:34;;;;;;;16.20;11.40;;;;;;;29.15;49.31;98692.43;233620;1214;139538;-58
2022/06/29 19:02:38;;;;;;;54.60;45.00;;;;;;;29.14;49.38;98687.77;233561;1217;139322;-57
2022/06/29 19:07:43;;;;;;;20.10;11.50;;;;;;;29.13;49.52;98705.17;233431;1217;139376;-59
2022/06/29 19:12:46;;;;;;;13.00;8.80;;;;;;;29.10;49.49;98721.80;233485;1216;139564;-57
2022/06/29 19:17:49;;;;;;;11.50;8.80;;;;;;;29.08;49.45;98737.63;233516;1216;138991;-57
2022/06/29 19:22:52;;;;;;;10.90;8.50;;;;;;;29.04;49.61;98745.20;233635;1217;138890;-57
2022/06/29 19:27:56;;;;;;;12.50;8.20;;;;;;;28.97;49.57;98749.77;233399;1217;139371;-56
2022/06/29 19:32:59;;;;;;;11.90;8.40;;;;;;;28.89;49.72;98748.45;233517;1217;138940;-59
2022/06/29 19:38:03;;;;;;;11.80;8.70;;;;;;;28.83;49.94;98756.16;233505;1217;138886;-57
2022/06/29 19:43:07;;;;;;;11.20;10.00;;;;;;;28.77;50.09;98760.41;233597;1217;138626;-56
2022/06/29 19:48:10;;;;;;;15.20;9.60;;;;;;;28.74;50.47;98759.30;233587;1217;139764;-58
2022/06/29 19:53:13;;;;;;;12.60;10.00;;;;;;;28.68;50.74;98767.75;233511;1217;138609;-58
2022/06/29 19:58:16;;;;;;;15.80;10.90;;;;;;;28.61;50.91;98768.64;233540;1215;140068;-58
2022/06/29 20:03:19;;;;;;;12.90;10.60;;;;;;;28.52;51.26;98769.44;233595;1217;139339;-58
2022/06/29 20:08:23;;;;;;;12.10;10.90;;;;;;;28.46;51.39;98770.63;233502;1216;139954;-57
2022/06/29 20:13:26;;;;;;;14.40;11.60;;;;;;;28.39;51.65;98770.27;233705;1217;139610;-57
2022/06/29 20:18:30;;;;;;;13.70;11.40;;;;;;;28.33;51.90;98771.41;233537;1217;139108;-58
2022/06/29 20:23:35;;;;;;;14.00;10.50;;;;;;;28.27;52.06;98771.90;233684;1217;139627;-54
2022/06/29 20:28:39;;;;;;;14.90;11.20;;;;;;;28.20;52.29;98775.25;233455;1216;139215;-57
2022/06/29 20:33:42;;;;;;;16.40;12.20;;;;;;;28.15;52.57;98775.90;233415;1216;139595;-56
2022/06/29 20:38:45;;;;;;;15.90;12.90;;;;;;;28.09;52.72;98770.78;233413;1217;139687;-57
2022/06/29 20:49:11;;;;;;;14.90;12.50;;;;;;;27.92;53.07;98773.77;233371;1217;139033;-57
2022/06/29 20:54:14;;;;;;;14.60;13.10;;;;;;;27.86;53.34;98778.23;233320;1217;139569;-57
2022/06/29 20:59:17;;;;;;;14.70;13.20;;;;;;;27.83;53.49;98782.41;233548;1217;139504;-58
2022/06/29 21:04:20;;;;;;;14.80;13.40;;;;;;;27.80;53.65;98780.30;233638;1217;139538;-57
2022/06/29 21:09:27;;;;;;;15.70;12.70;;;;;;;27.78;53.93;98783.30;233548;1216;138905;-57
2022/06/29 21:14:30;;;;;;;13.10;11.70;;;;;;;27.71;53.93;98773.30;233355;1217;139459;-58
2022/06/29 21:19:37;;;;;;;19.20;13.00;;;;;;;27.74;54.09;98769.26;233443;1217;139778;-58
2022/06/29 21:24:40;;;;;;;14.20;12.60;;;;;;;27.74;54.07;98763.48;233581;1216;138719;-57
2022/06/29 21:29:44;;;;;;;16.00;12.80;;;;;;;27.73;54.21;98770.15;233445;1215;139501;-58
2022/06/29 21:34:47;;;;;;;14.50;12.40;;;;;;;27.69;54.19;98769.31;233365;1218;139112;-58
2022/06/29 21:39:50;;;;;;;13.50;12.00;;;;;;;27.64;54.36;98766.86;233391;1217;141511;-58
2022/06/29 21:44:53;;;;;;;14.10;11.90;;;;;;;27.54;54.35;98762.79;233422;1217;143989;-58
2022/06/29 21:55:17;;;;;;;13.70;12.30;;;;;;;27.50;54.43;98775.16;233601;1217;139293;-58
2022/06/29 22:00:21;;;;;;;14.30;12.60;;;;;;;27.45;54.50;98773.06;233505;1217;139363;-57
2022/06/29 22:05:24;;;;;;;13.50;12.10;;;;;;;27.43;54.52;98770.89;233412;1215;139575;-58
2022/06/29 22:10:27;;;;;;;12.80;11.50;;;;;;;27.41;54.52;98774.95;233392;1217;139938;-57
2022/06/29 22:15:30;;;;;;;14.90;11.40;;;;;;;27.40;54.72;98777.27;233415;1217;139729;-56
2022/06/29 22:20:33;;;;;;;13.80;12.10;;;;;;;27.38;54.73;98769.62;233452;1217;138947;-57
2022/06/29 22:25:42;;;;;;;15.80;12.30;;;;;;;27.37;54.62;98769.65;233568;1217;140094;-59
2022/06/29 22:30:45;;;;;;;16.20;12.70;;;;;;;27.34;54.73;98772.69;233537;1217;139399;-57
2022/06/29 22:35:49;;;;;;;13.60;12.20;;;;;;;27.29;54.74;98774.27;233550;1217;140249;-57
2022/06/29 22:40:52;;;;;;;13.50;12.10;;;;;;;27.23;54.62;98770.58;233607;1217;139586;-57
2022/06/29 22:45:55;;;;;;;12.90;11.60;;;;;;;27.15;54.63;98763.30;233470;1217;139148;-57
2022/06/29 22:50:58;;;;;;;13.90;12.20;;;;;;;27.10;54.82;98756.88;233500;1215;139683;-57
2022/06/29 22:56:05;;;;;;;13.80;11.10;;;;;;;27.05;54.86;98756.98;233629;1216;152973;-55
2022/06/29 23:01:08;;;;;;;15.60;11.90;;;;;;;27.00;55.06;98754.17;233590;1217;141435;-57
2022/06/29 23:06:11;;;;;;;14.00;11.20;;;;;;;26.97;54.95;98754.97;233529;1217;139021;-58
2022/06/29 23:16:36;;;;;;;14.90;12.10;;;;;;;26.94;55.11;98742.85;233641;1216;139143;-58
2022/06/29 23:21:39;;;;;;;13.20;11.70;;;;;;;26.95;55.28;98738.83;233596;1216;138959;-59
2022/06/29 23:26:42;;;;;;;15.70;11.90;;;;;;;26.94;55.03;98737.23;233626;1216;138980;-56
2022/06/29 23:31:45;;;;;;;12.40;11.00;;;;;;;26.88;55.04;98730.53;233500;1216;139239;-57
2022/06/29 23:36:48;;;;;;;13.50;11.10;;;;;;;26.83;54.91;98731.23;233442;1216;232079;-58